createdAt,value
2018-12-25T00:02:06.362Z,102027.08
2018-12-25T00:04:35.514Z,102025.57
2018-12-25T00:07:04.629Z,102023.27
2018-12-25T00:09:33.788Z,102021.26
2018-12-25T00:12:02.918Z,102020.08
2018-12-25T00:14:32.062Z,102023.03
2018-12-25T00:17:01.190Z,102018.59
2018-12-25T00:19:30.345Z,102018.88
2018-12-25T00:21:59.477Z,102008.86
2018-12-25T00:24:28.614Z,102004.42
2018-12-25T00:26:57.747Z,102000.61
2018-12-25T00:29:26.934Z,101997.30
2018-12-25T00:31:56.069Z,101989.73
2018-12-25T00:34:25.202Z,101984.48
2018-12-25T00:36:54.330Z,101986.41
2018-12-25T00:39:23.472Z,101983.95
2018-12-25T00:41:52.612Z,101978.81
2018-12-25T00:44:21.868Z,101980.95
2018-12-25T00:46:50.948Z,101971.88
2018-12-25T00:49:20.101Z,101972.21
2018-12-25T00:51:49.310Z,101972.83
2018-12-25T00:54:18.447Z,101977.09
2018-12-25T00:56:47.583Z,101981.20
2018-12-25T00:59:16.729Z,101983.63
2018-12-25T01:01:45.869Z,101980.50
2018-12-25T01:04:15.040Z,101991.67
2018-12-25T01:06:44.166Z,102000.66
2018-12-25T01:09:13.278Z,102007.39
2018-12-25T01:11:42.413Z,102019.99
2018-12-25T01:14:11.574Z,102032.14
2018-12-25T01:16:40.699Z,102035.75
2018-12-25T01:19:09.851Z,102033.94
2018-12-25T01:21:38.999Z,102039.31
2018-12-25T01:24:08.114Z,102046.21
2018-12-25T01:26:37.232Z,102049.66
2018-12-25T01:29:06.375Z,102041.89
2018-12-25T01:31:35.542Z,102045.80
2018-12-25T01:34:04.659Z,102048.09
2018-12-25T01:36:33.825Z,102044.16
2018-12-25T01:39:04.513Z,102043.45
2018-12-25T01:41:33.760Z,102043.77
2018-12-25T01:44:02.864Z,102046.40
2018-12-25T01:46:31.992Z,102040.28
2018-12-25T01:49:01.126Z,102027.64
2018-12-25T01:51:30.260Z,102027.11
2018-12-25T01:53:59.390Z,102025.46
2018-12-25T01:56:28.535Z,102026.73
2018-12-25T01:58:57.691Z,102029.03
2018-12-25T02:01:26.833Z,102037.06
2018-12-25T02:03:55.984Z,102047.56
2018-12-25T02:06:25.204Z,102045.55
2018-12-25T02:08:54.293Z,102045.34
2018-12-25T02:11:23.465Z,102042.39
2018-12-25T02:13:52.642Z,102040.91
2018-12-25T02:16:21.790Z,102047.27
2018-12-25T02:18:50.900Z,102048.73
2018-12-25T02:21:20.073Z,102043.97
2018-12-25T02:23:49.205Z,102046.88
2018-12-25T02:26:18.353Z,102046.05
2018-12-25T02:28:47.511Z,102038.96
2018-12-25T02:31:16.625Z,102041.42
2018-12-25T02:33:45.785Z,102041.73
2018-12-25T02:36:14.903Z,102037.96
2018-12-25T02:38:44.060Z,102041.20
2018-12-25T02:41:13.173Z,102037.75
2018-12-25T02:43:42.304Z,102038.85
2018-12-25T02:46:11.464Z,102038.35
2018-12-25T02:48:40.595Z,102036.38
2018-12-25T02:51:09.737Z,102032.89
2018-12-25T02:53:38.867Z,102027.61
2018-12-25T02:56:08.036Z,102023.63
2018-12-25T02:58:37.172Z,102020.98
2018-12-25T03:01:06.353Z,102026.04
2018-12-25T03:03:35.469Z,102026.84
2018-12-25T03:06:04.620Z,102023.56
2018-12-25T03:08:33.719Z,102023.19
2018-12-25T03:11:02.926Z,102019.90
2018-12-25T03:13:31.995Z,102022.16
2018-12-25T03:16:01.136Z,102016.73
2018-12-25T03:18:30.262Z,102012.43
2018-12-25T03:20:59.377Z,102020.13
2018-12-25T03:23:28.514Z,102021.43
2018-12-25T03:25:57.633Z,102017.78
2018-12-25T03:28:26.765Z,102011.05
2018-12-25T03:30:55.894Z,102005.97
2018-12-25T03:33:25.027Z,102006.29
2018-12-25T03:35:54.153Z,101996.91
2018-12-25T03:38:23.295Z,101998.20
2018-12-25T03:40:52.420Z,102003.08
2018-12-25T03:43:21.566Z,102003.73
2018-12-25T03:45:50.687Z,102004.01
2018-12-25T03:48:19.827Z,102011.71
2018-12-25T03:50:48.963Z,102015.97
2018-12-25T03:53:18.103Z,102022.00
2018-12-25T03:55:47.236Z,102016.90
2018-12-25T03:58:16.381Z,102013.62
2018-12-25T04:00:45.510Z,102006.73
2018-12-25T04:03:14.663Z,102002.43
2018-12-25T04:05:43.839Z,101999.47
2018-12-25T04:08:12.983Z,101995.05
2018-12-25T04:10:42.105Z,101998.81
2018-12-25T04:13:11.252Z,102002.53
2018-12-25T04:15:40.373Z,102004.83
2018-12-25T04:18:09.510Z,102001.67
2018-12-25T04:20:38.629Z,102004.45
2018-12-25T04:23:07.810Z,102005.11
2018-12-25T04:25:36.930Z,102005.42
2018-12-25T04:28:06.064Z,102002.14
2018-12-25T04:30:35.179Z,102004.55
2018-12-25T04:33:04.318Z,102010.29
2018-12-25T04:35:33.523Z,102010.59
2018-12-25T04:38:02.662Z,102011.20
2018-12-25T04:40:31.778Z,102017.27
2018-12-25T04:43:00.920Z,102017.06
2018-12-25T04:45:30.040Z,102018.36
2018-12-25T04:47:59.174Z,102025.89
2018-12-25T04:50:29.451Z,102024.20
2018-12-25T04:52:59.032Z,102018.47
2018-12-25T04:55:28.147Z,102019.94
2018-12-25T04:57:57.273Z,102018.25
2018-12-25T05:00:26.398Z,102015.91
2018-12-25T05:02:55.521Z,102019.50
2018-12-25T05:05:24.666Z,102022.43
2018-12-25T05:07:53.799Z,102025.33
2018-12-25T05:10:22.931Z,102017.42
2018-12-25T05:12:52.053Z,102019.05
2018-12-25T05:15:21.186Z,102024.77
2018-12-25T05:17:50.318Z,102023.95
2018-12-25T05:20:19.452Z,102023.25
2018-12-25T05:22:48.585Z,102026.02
2018-12-25T05:25:18.929Z,102036.02
2018-12-25T05:27:48.031Z,102034.66
2018-12-25T05:30:17.168Z,102031.69
2018-12-25T05:32:46.289Z,102027.09
2018-12-25T05:35:15.420Z,102022.14
2018-12-25T05:37:44.541Z,102022.28
2018-12-25T05:40:13.676Z,102018.31
2018-12-25T05:42:42.804Z,102018.13
2018-12-25T05:45:11.939Z,102017.47
2018-12-25T05:47:41.066Z,102020.70
2018-12-25T05:50:10.201Z,102023.14
2018-12-25T05:52:39.327Z,102028.39
2018-12-25T05:55:08.458Z,102033.91
2018-12-25T05:57:37.578Z,102039.30
2018-12-25T06:00:08.049Z,102045.36
2018-12-25T06:02:37.185Z,102041.91
2018-12-25T06:05:06.398Z,102045.47
2018-12-25T06:07:35.531Z,102042.02
2018-12-25T06:10:05.057Z,102039.72
2018-12-25T06:12:34.185Z,102055.61
2018-12-25T06:15:03.326Z,102048.02
2018-12-25T06:17:32.452Z,102037.20
2018-12-25T06:20:01.592Z,102036.00
2018-12-25T06:22:30.715Z,102035.98
2018-12-25T06:24:59.882Z,102037.95
2018-12-25T06:27:29.092Z,102041.50
2018-12-25T06:29:58.227Z,102037.55
2018-12-25T06:32:27.335Z,102039.67
2018-12-25T06:34:56.482Z,102046.67
2018-12-25T06:37:25.640Z,102043.54
2018-12-25T06:39:54.774Z,102037.44
2018-12-25T06:42:23.868Z,102040.55
2018-12-25T06:44:53.033Z,102024.64
2018-12-25T06:47:22.127Z,102022.84
2018-12-25T06:49:51.274Z,102026.39
2018-12-25T06:52:20.401Z,102023.77
2018-12-25T06:54:49.559Z,102032.77
2018-12-25T06:57:18.697Z,102033.37
2018-12-25T06:59:47.807Z,102040.41
2018-12-25T07:02:16.946Z,102035.98
2018-12-25T07:04:46.176Z,102040.88
2018-12-25T07:07:15.281Z,102042.30
2018-12-25T07:09:44.416Z,102044.27
2018-12-25T07:12:13.552Z,102041.42
2018-12-25T07:14:42.676Z,102049.00
2018-12-25T07:17:11.815Z,102048.77
2018-12-25T07:19:40.936Z,102049.92
2018-12-25T07:22:10.083Z,102049.91
2018-12-25T07:24:39.212Z,102055.58
2018-12-25T07:27:08.346Z,102058.69
2018-12-25T07:29:37.470Z,102057.05
2018-12-25T07:32:06.615Z,102056.87
2018-12-25T07:34:35.758Z,102043.72
2018-12-25T07:37:04.894Z,102038.81
2018-12-25T07:39:34.016Z,102036.34
2018-12-25T07:42:03.153Z,102034.20
2018-12-25T07:44:32.277Z,102037.11
2018-12-25T07:47:01.417Z,102031.05
2018-12-25T07:49:30.566Z,102034.97
2018-12-25T07:51:59.725Z,102037.09
2018-12-25T07:54:28.848Z,102037.37
2018-12-25T07:56:57.981Z,102034.91
2018-12-25T07:59:27.119Z,102027.86
2018-12-25T08:01:56.272Z,102030.32
2018-12-25T08:04:25.404Z,102026.05
2018-12-25T08:06:54.552Z,102021.95
2018-12-25T08:09:23.669Z,102016.51
2018-12-25T08:11:52.819Z,102015.73
2018-12-25T08:14:21.934Z,102019.82
2018-12-25T08:16:51.078Z,102020.43
2018-12-25T08:19:20.204Z,102015.84
2018-12-25T08:21:49.344Z,102009.45
2018-12-25T08:24:18.464Z,102011.09
2018-12-25T08:26:47.614Z,102002.09
2018-12-25T08:29:16.746Z,102010.93
2018-12-25T08:31:45.865Z,102019.43
2018-12-25T08:34:15.027Z,102015.34
2018-12-25T08:36:44.148Z,102013.22
2018-12-25T08:39:13.277Z,102018.27
2018-12-25T08:41:42.402Z,102027.45
2018-12-25T08:44:11.584Z,102033.33
2018-12-25T08:46:40.674Z,102035.59
2018-12-25T08:49:09.837Z,102038.19
2018-12-25T08:51:39.244Z,102033.27
2018-12-25T08:54:08.398Z,102028.36
2018-12-25T08:56:37.543Z,102024.92
2018-12-25T08:59:06.699Z,102022.63
2018-12-25T09:01:35.815Z,102029.69
2018-12-25T09:04:04.934Z,102025.91
2018-12-25T09:06:34.095Z,102018.86
2018-12-25T09:09:04.936Z,102024.42
2018-12-25T09:11:34.064Z,102026.88
2018-12-25T09:14:03.199Z,102028.52
2018-12-25T09:16:32.324Z,102022.95
2018-12-25T09:19:01.469Z,102024.09
2018-12-25T09:21:30.592Z,102036.49
2018-12-25T09:23:59.721Z,102053.41
2018-12-25T09:26:28.865Z,102047.01
2018-12-25T09:28:57.977Z,102041.77
2018-12-25T09:31:27.104Z,102045.56
2018-12-25T09:33:56.594Z,102046.27
2018-12-25T09:36:25.676Z,102042.18
2018-12-25T09:38:54.863Z,102038.77
2018-12-25T09:41:23.990Z,102045.52
2018-12-25T09:43:53.130Z,102050.62
2018-12-25T09:46:22.288Z,102051.94
2018-12-25T09:48:51.429Z,102053.57
2018-12-25T09:51:20.567Z,102051.61
2018-12-25T09:53:49.673Z,102055.93
2018-12-25T09:56:18.797Z,102058.77
2018-12-25T09:58:47.952Z,102052.88
2018-12-25T10:01:17.097Z,102053.44
2018-12-25T10:03:46.207Z,102047.05
2018-12-25T10:06:15.364Z,102050.01
2018-12-25T10:08:44.482Z,102053.18
2018-12-25T10:11:13.609Z,102050.91
2018-12-25T10:13:42.848Z,102053.42
2018-12-25T10:16:12.003Z,102058.56
2018-12-25T10:18:41.102Z,102060.87
2018-12-25T10:21:10.273Z,102056.33
2018-12-25T10:23:39.406Z,102054.61
2018-12-25T10:26:08.529Z,102051.36
2018-12-25T10:28:37.658Z,102048.31
2018-12-25T10:31:06.801Z,102057.36
2018-12-25T10:33:35.953Z,102060.33
2018-12-25T10:36:05.087Z,102048.88
2018-12-25T10:38:34.189Z,102044.18
2018-12-25T10:41:03.340Z,102036.70
2018-12-25T10:43:32.469Z,102041.80
2018-12-25T10:46:01.613Z,102047.92
2018-12-25T10:48:30.786Z,102046.99
2018-12-25T10:50:59.936Z,102032.76
2018-12-25T10:53:29.074Z,102027.59
2018-12-25T10:55:58.217Z,102031.30
2018-12-25T10:58:27.344Z,102030.33
2018-12-25T11:00:56.698Z,102029.73
2018-12-25T11:03:25.819Z,102013.56
2018-12-25T11:05:54.952Z,102007.08
2018-12-25T11:08:24.119Z,101992.06
2018-12-25T11:10:53.258Z,101992.13
2018-12-25T11:13:22.421Z,101979.03
2018-12-25T11:15:51.557Z,101979.95
2018-12-25T11:18:20.691Z,101977.34
2018-12-25T11:20:49.801Z,101970.66
2018-12-25T11:23:18.968Z,101961.54
2018-12-25T11:25:48.085Z,101951.56
2018-12-25T11:28:17.212Z,101946.03
2018-12-25T11:30:46.417Z,101951.33
2018-12-25T11:33:15.583Z,101958.06
2018-12-25T11:35:44.762Z,101954.33
2018-12-25T11:38:13.849Z,101956.52
2018-12-25T11:40:43.032Z,101952.59
2018-12-25T11:43:12.167Z,101954.12
2018-12-25T11:45:41.362Z,101942.52
2018-12-25T11:48:10.504Z,101948.44
2018-12-25T11:50:39.666Z,101947.67
2018-12-25T11:53:08.810Z,101951.81
2018-12-25T11:55:37.950Z,101952.19
2018-12-25T11:58:07.218Z,101955.67
2018-12-25T12:00:36.348Z,101960.94
2018-12-25T12:03:05.530Z,101964.14
2018-12-25T12:05:34.640Z,101960.70
2018-12-25T12:08:03.769Z,101966.33
2018-12-25T12:10:32.880Z,101965.56
2018-12-25T12:13:02.023Z,101961.02
2018-12-25T12:15:31.160Z,101957.31
2018-12-25T12:18:00.319Z,101954.90
2018-12-25T12:20:29.437Z,101958.03
2018-12-25T12:22:58.550Z,101964.80
2018-12-25T12:25:27.716Z,101964.34
2018-12-25T12:27:56.856Z,101959.92
2018-12-25T12:30:25.979Z,101958.66
2018-12-25T12:32:55.124Z,101968.38
2018-12-25T12:35:24.222Z,101963.98
2018-12-25T12:37:53.396Z,101961.73
2018-12-25T12:40:22.523Z,101958.63
2018-12-25T12:42:51.645Z,101956.08
2018-12-25T12:45:20.770Z,101962.48
2018-12-25T12:47:49.945Z,101954.32
2018-12-25T12:50:19.057Z,101960.27
2018-12-25T12:52:48.205Z,101967.05
2018-12-25T12:55:17.328Z,101963.44
2018-12-25T12:57:46.464Z,101956.91
2018-12-25T13:00:15.646Z,101961.55
2018-12-25T13:02:44.820Z,101960.59
2018-12-25T13:05:13.946Z,101958.80
2018-12-25T13:07:43.086Z,101964.91
2018-12-25T13:10:12.217Z,101966.09
2018-12-25T13:12:41.323Z,101968.44
2018-12-25T13:15:10.456Z,101972.37
2018-12-25T13:17:39.617Z,101971.59
2018-12-25T13:20:08.762Z,101979.34
2018-12-25T13:22:37.967Z,101975.73
2018-12-25T13:25:07.079Z,101970.02
2018-12-25T13:27:36.237Z,101972.16
2018-12-25T13:30:08.781Z,101971.70
2018-12-25T13:32:37.909Z,101972.36
2018-12-25T13:35:07.029Z,101971.74
2018-12-25T13:37:36.190Z,101976.67
2018-12-25T13:40:06.347Z,101971.77
2018-12-25T13:42:35.473Z,101977.69
2018-12-25T13:45:04.810Z,101979.53
2018-12-25T13:47:33.965Z,101975.92
2018-12-25T13:50:03.106Z,101976.78
2018-12-25T13:52:32.227Z,101974.48
2018-12-25T13:55:01.335Z,101970.73
2018-12-25T13:57:30.460Z,101971.72
2018-12-25T13:59:59.643Z,101971.75
2018-12-25T14:02:28.756Z,101973.89
2018-12-25T14:04:58.744Z,101971.95
2018-12-25T14:07:27.868Z,101980.98
2018-12-25T14:09:57.102Z,101983.48
2018-12-25T14:12:26.280Z,101986.11
2018-12-25T14:14:55.409Z,101985.63
2018-12-25T14:17:24.501Z,101990.55
2018-12-25T14:19:53.633Z,101985.46
2018-12-25T14:22:22.772Z,101986.12
2018-12-25T14:24:51.955Z,101992.56
2018-12-25T14:27:21.119Z,101995.84
2018-12-25T14:29:50.295Z,102001.96
2018-12-25T14:32:19.424Z,102011.00
2018-12-25T14:34:48.553Z,102007.88
2018-12-25T14:37:17.692Z,102008.04
2018-12-25T14:39:46.802Z,102014.45
2018-12-25T14:42:15.929Z,102015.11
2018-12-25T14:44:45.053Z,102014.81
2018-12-25T14:47:26.413Z,102012.19
2018-12-25T14:49:55.983Z,102014.19
2018-12-25T14:52:25.108Z,102006.95
2018-12-25T14:54:54.245Z,102006.30
2018-12-25T14:57:23.397Z,101997.42
2018-12-25T14:59:52.525Z,101997.75
2018-12-25T15:02:21.695Z,102008.14
2018-12-25T15:04:50.837Z,102009.45
2018-12-25T15:07:19.972Z,102005.51
2018-12-25T15:09:49.108Z,102008.14
2018-12-25T15:12:18.234Z,102003.57
2018-12-25T15:14:47.339Z,101993.38
2018-12-25T15:17:16.463Z,101993.18
2018-12-25T15:19:45.622Z,101991.24
2018-12-25T15:22:14.846Z,101988.28
2018-12-25T15:24:44.016Z,101987.30
2018-12-25T15:27:13.157Z,101984.34
2018-12-25T15:29:42.258Z,101981.87
2018-12-25T15:32:11.437Z,101981.21
2018-12-25T15:34:40.545Z,101977.77
2018-12-25T15:37:09.663Z,101980.89
2018-12-25T15:39:38.809Z,101986.67
2018-12-25T15:42:07.930Z,101988.31
2018-12-25T15:44:37.070Z,101984.17
2018-12-25T15:47:06.232Z,101990.75
2018-12-25T15:49:35.365Z,101994.37
2018-12-25T15:52:04.500Z,101995.84
2018-12-25T15:54:33.610Z,101979.91
2018-12-25T15:57:03.095Z,101984.80
2018-12-25T15:59:32.236Z,101979.51
2018-12-25T16:02:13.553Z,101985.59
2018-12-25T16:04:43.137Z,101983.13
2018-12-25T16:07:12.290Z,101988.35
2018-12-25T16:09:41.439Z,101993.28
2018-12-25T16:12:10.555Z,101991.94
2018-12-25T16:14:39.721Z,101989.14
2018-12-25T16:17:08.822Z,101993.55
2018-12-25T16:19:37.994Z,102000.77
2018-12-25T16:22:07.117Z,101993.02
2018-12-25T16:24:36.272Z,102003.20
2018-12-25T16:27:06.749Z,102003.00
2018-12-25T16:29:47.756Z,102005.97
2018-12-25T16:32:17.281Z,102005.08
2018-12-25T16:34:46.411Z,102004.70
2018-12-25T16:37:15.568Z,102009.30
2018-12-25T16:39:44.684Z,102008.31
2018-12-25T16:42:13.817Z,102006.15
2018-12-25T16:44:42.956Z,101997.56
2018-12-25T16:47:12.090Z,102002.49
2018-12-25T16:49:41.190Z,102004.10
2018-12-25T16:52:10.358Z,102001.31
2018-12-25T16:54:39.460Z,102003.73
2018-12-25T16:57:08.594Z,102009.64
2018-12-25T16:59:37.754Z,102012.59
2018-12-25T17:02:06.946Z,102017.98
2018-12-25T17:04:36.093Z,102007.14
2018-12-25T17:07:05.227Z,102009.89
2018-12-25T17:09:34.324Z,102012.00
2018-12-25T17:12:03.514Z,102012.48
2018-12-25T17:14:32.697Z,102003.77
2018-12-25T17:17:01.847Z,101998.32
2018-12-25T17:19:30.979Z,101991.55
2018-12-25T17:22:00.128Z,101989.37
2018-12-25T17:24:29.255Z,101986.91
2018-12-25T17:26:58.402Z,101991.30
2018-12-25T17:29:27.526Z,101997.05
2018-12-25T17:31:56.673Z,102001.61
2018-12-25T17:34:25.790Z,101992.56
2018-12-25T17:36:54.951Z,101992.70
2018-12-25T17:39:24.082Z,101998.28
2018-12-25T17:41:53.224Z,101996.76
2018-12-25T17:44:22.349Z,101991.17
2018-12-25T17:46:51.486Z,101997.05
2018-12-25T17:49:20.607Z,101999.83
2018-12-25T17:51:49.735Z,102003.72
2018-12-25T17:54:18.886Z,101995.34
2018-12-25T17:56:48.034Z,101992.03
2018-12-25T17:59:17.161Z,101991.70
2018-12-25T18:01:46.289Z,101994.78
2018-12-25T18:04:15.451Z,101995.44
2018-12-25T18:06:44.609Z,101997.39
2018-12-25T18:09:13.747Z,102001.95
2018-12-25T18:11:42.878Z,101993.57
2018-12-25T18:14:12.050Z,101993.53
2018-12-25T18:16:41.179Z,101995.83
2018-12-25T18:19:10.342Z,102002.69
2018-12-25T18:21:39.479Z,102000.22
2018-12-25T18:24:08.618Z,101996.59
2018-12-25T18:26:37.762Z,102001.36
2018-12-25T18:29:06.921Z,101995.56
2018-12-25T18:31:36.049Z,101997.17
2018-12-25T18:34:05.193Z,101994.38
2018-12-25T18:36:34.326Z,101990.44
2018-12-25T18:39:04.848Z,101990.06
2018-12-25T18:41:33.992Z,101990.72
2018-12-25T18:44:03.218Z,101980.38
2018-12-25T18:46:32.334Z,101982.63
2018-12-25T18:49:01.478Z,101979.84
2018-12-25T18:51:30.609Z,101979.51
2018-12-25T18:53:59.751Z,101985.87
2018-12-25T18:56:28.885Z,101991.93
2018-12-25T18:58:58.022Z,101989.47
2018-12-25T19:01:27.145Z,101982.58
2018-12-25T19:03:56.293Z,101993.03
2018-12-25T19:06:25.433Z,101990.69
2018-12-25T19:08:54.607Z,101983.93
2018-12-25T19:11:23.726Z,101977.98
2018-12-25T19:13:52.864Z,101977.00
2018-12-25T19:16:21.993Z,101977.64
2018-12-25T19:18:51.142Z,101973.05
2018-12-25T19:21:20.281Z,101978.13
2018-12-25T19:23:51.638Z,101981.37
2018-12-25T19:26:20.764Z,101980.55
2018-12-25T19:28:49.928Z,101981.86
2018-12-25T19:31:19.060Z,101983.13
2018-12-25T19:33:48.197Z,101990.01
2018-12-25T19:36:17.336Z,101986.69
2018-12-25T19:38:46.487Z,101977.66
2018-12-25T19:41:15.613Z,101979.95
2018-12-25T19:43:44.763Z,101968.80
2018-12-25T19:46:13.905Z,101970.77
2018-12-25T19:48:43.050Z,101973.02
2018-12-25T19:51:12.300Z,101972.52
2018-12-25T19:53:41.441Z,101979.36
2018-12-25T19:56:10.595Z,101980.17
2018-12-25T19:58:39.800Z,101975.05
2018-12-25T20:01:08.933Z,101977.50
2018-12-25T20:03:41.195Z,101975.65
2018-12-25T20:06:20.991Z,101975.48
2018-12-25T20:09:46.884Z,101966.58
2018-12-25T20:12:41.577Z,101977.01
2018-12-25T20:15:33.542Z,101978.70
2018-12-25T20:18:34.700Z,101970.94
2018-12-25T20:21:23.670Z,101969.84
2018-12-25T20:24:00.456Z,101959.95
2018-12-25T20:26:54.934Z,101958.80
2018-12-25T20:29:55.592Z,101949.74
2018-12-25T20:33:03.042Z,101956.23
2018-12-25T20:36:10.259Z,101954.96
2018-12-25T20:39:30.695Z,101946.34
2018-12-25T20:42:33.080Z,101944.89
2018-12-25T20:45:46.922Z,101944.03
2018-12-25T20:48:42.051Z,101946.20
2018-12-25T20:51:55.149Z,101930.31
2018-12-25T20:55:01.441Z,101937.78
2018-12-25T20:57:40.730Z,101916.77
2018-12-25T21:00:40.572Z,101921.40
2018-12-25T21:03:41.873Z,101909.61
2018-12-25T21:06:38.363Z,101912.39
2018-12-25T21:09:46.601Z,101912.33
2018-12-25T21:12:50.749Z,101918.02
2018-12-25T21:16:09.145Z,101915.33
2018-12-25T21:19:14.921Z,101927.55
2018-12-25T21:21:51.558Z,101912.25
2018-12-25T21:25:16.120Z,101903.31
2018-12-25T21:27:43.914Z,101900.08
2018-12-25T21:30:13.121Z,101901.13
2018-12-25T21:32:42.333Z,101901.08
2018-12-25T21:35:19.890Z,101902.83
2018-12-25T21:37:49.114Z,101896.95
2018-12-25T21:40:18.237Z,101897.83
2018-12-25T21:42:47.750Z,101893.59
2018-12-25T21:45:16.900Z,101891.84
2018-12-25T21:47:46.058Z,101886.81
2018-12-25T21:50:15.167Z,101892.39
2018-12-25T21:52:44.313Z,101895.22
2018-12-25T21:55:18.527Z,101895.23
2018-12-25T21:57:44.400Z,101896.38
2018-12-25T22:00:14.230Z,101895.55
2018-12-25T22:02:43.379Z,101896.86
2018-12-25T22:05:12.568Z,101892.11
2018-12-25T22:07:41.719Z,101888.52
2018-12-25T22:10:10.860Z,101884.58
2018-12-25T22:12:40.011Z,101887.73
2018-12-25T22:15:09.235Z,101888.19
2018-12-25T22:17:38.392Z,101889.83
2018-12-25T22:20:18.267Z,101892.94
2018-12-25T22:22:47.424Z,101889.81
2018-12-25T22:25:16.558Z,101890.27
2018-12-25T22:27:45.723Z,101887.80
2018-12-25T22:30:14.853Z,101883.88
2018-12-25T22:32:44.024Z,101888.45
2018-12-25T22:35:13.156Z,101894.34
2018-12-25T22:37:42.310Z,101899.41
2018-12-25T22:40:11.439Z,101897.28
2018-12-25T22:42:40.592Z,101897.56
2018-12-25T22:45:09.726Z,101903.12
2018-12-25T22:47:38.883Z,101907.38
2018-12-25T22:50:08.023Z,101912.73
2018-12-25T22:52:37.171Z,101916.05
2018-12-25T22:55:08.874Z,101909.13
2018-12-25T22:57:38.055Z,101905.69
2018-12-25T23:00:10.552Z,101897.83
2018-12-25T23:02:39.717Z,101904.20
2018-12-25T23:05:08.847Z,101904.48
2018-12-25T23:07:38.002Z,101903.33
2018-12-25T23:10:07.714Z,101892.14
2018-12-25T23:12:36.873Z,101887.55
2018-12-25T23:15:06.607Z,101884.28
2018-12-25T23:17:35.747Z,101877.73
2018-12-25T23:20:05.723Z,101876.04
2018-12-25T23:22:34.868Z,101873.42
2018-12-25T23:25:04.292Z,101874.23
2018-12-25T23:27:33.439Z,101869.48
2018-12-25T23:30:02.579Z,101866.82
2018-12-25T23:32:31.716Z,101869.59
2018-12-25T23:35:00.877Z,101856.83
2018-12-25T23:37:29.999Z,101850.92
2018-12-25T23:39:59.146Z,101843.84
2018-12-25T23:42:28.351Z,101836.13
2018-12-25T23:44:57.503Z,101843.66
2018-12-25T23:47:26.634Z,101843.94
2018-12-25T23:49:55.779Z,101852.62
2018-12-25T23:52:24.916Z,101848.20
2018-12-25T23:54:54.076Z,101843.07
2018-12-25T23:57:23.208Z,101832.42
2018-12-25T23:59:52.366Z,101834.05
